San Leon, Texas
Current Conditions -  °F | °C
As of 7:50 PM on Saturday 22 Nov 2014 (Local Time) from KEFD Reporting Station
Haze Haze  
Wind Chill: 66°   Ceiling: 4000
Heat Index: 66°   Visibility: 5mi
Dew Point: 64°   Wind: 5mph
Humidity: 94%   Direction: 120°ESE
Pressure: 29.81"   Gusts: NA
Location:  29.4598°N, 95.0288°W
Report Text: KEFD 230150Z 12004KT 5SM BR FEW025 BKN040 OVC090 19/18 A2981
Loading
Personal Weather Stations






























Interactive Weather Map New forecast layout! Learn more

10-Day Weather Forecast

Advertisements
Track Severe Weather on mobile